Time;durP1;ratioP1;P1;durP2;ratioP2;P2;SDS_P1;SDS_P2;PMS_P1;PMS_P2;Temp;Humidity;BMP_temperature;BMP_pressure;BME280_temperature;BME280_humidity;BME280_pressure;Samples;Min_cycle;Max_cycle;Signal;HPM_P1;HPM_P2
2023/12/07 00:01:53;;;;;;;38.42;19.35;;;;;;;;;;5008557;28;20049;-71
2023/12/07 00:04:34;;;;;;;43.20;22.30;;;;;;;;;;5007854;28;20046;-70
2023/12/07 00:07:16;;;;;;;40.45;21.98;;;;;;;;;;4999562;28;20156;-71
2023/12/07 00:09:57;;;;;;;39.05;19.98;;;;;;;;;;5008691;28;20537;-71
2023/12/07 00:12:39;;;;;;;44.63;22.27;;;;;;;;;;5002050;28;20621;-72
2023/12/07 00:15:20;;;;;;;37.95;20.42;;;;;;;;;;5008816;28;20060;-73
2023/12/07 00:18:02;;;;;;;41.38;20.48;;;;;;;;;;5007834;28;20572;-71
2023/12/07 00:20:48;;;;;;;40.38;20.75;;;;;;;;;;5008218;28;20192;-71
2023/12/07 00:23:29;;;;;;;42.90;21.35;;;;;;;;;;5004380;28;20038;-71
2023/12/07 00:26:10;;;;;;;38.28;20.48;;;;;;;;;;5007923;28;20053;-71
2023/12/07 00:28:52;;;;;;;41.90;20.73;;;;;;;;;;5008033;28;20038;-70
2023/12/07 00:31:33;;;;;;;44.05;22.15;;;;;;;;;;5008004;28;20129;-73
2023/12/07 00:34:17;;;;;;;38.60;20.75;;;;;;;;;;5004833;28;20129;-71
2023/12/07 00:36:58;;;;;;;36.65;19.90;;;;;;;;;;5007147;28;20296;-71
2023/12/07 00:39:40;;;;;;;43.90;22.10;;;;;;;;;;5008155;28;20049;-71
2023/12/07 00:42:22;;;;;;;37.22;20.88;;;;;;;;;;5001172;28;20038;-70
2023/12/07 00:45:04;;;;;;;44.40;21.80;;;;;;;;;;5007695;28;20046;-73
2023/12/07 00:47:45;;;;;;;;;;;;;;;;;;5004313;28;20406;-71
2023/12/07 00:50:27;;;;;;;38.10;20.33;;;;;;;;;;5007759;28;20255;-70
2023/12/07 00:53:08;;;;;;;39.88;20.50;;;;;;;;;;5007214;28;20050;-71
2023/12/07 00:55:50;;;;;;;37.05;19.88;;;;;;;;;;5008118;28;20053;-71
2023/12/07 00:58:31;;;;;;;41.00;20.70;;;;;;;;;;5003798;28;20046;-71
2023/12/07 01:01:13;;;;;;;;;;;;;;;;;;5008516;28;20061;-71
2023/12/07 01:03:54;;;;;;;39.95;21.05;;;;;;;;;;5007049;28;19927;-71
2023/12/07 01:06:36;;;;;;;41.65;21.52;;;;;;;;;;4996319;28;20715;-71
2023/12/07 01:09:17;;;;;;;;;;;;;;;;;;5002364;28;20552;-71
2023/12/07 01:12:02;;;;;;;38.03;17.90;;;;;;;;;;4999952;28;19921;-71
2023/12/07 01:14:43;;;;;;;36.95;20.08;;;;;;;;;;5007933;28;20049;-71
2023/12/07 01:17:24;;;;;;;40.53;20.85;;;;;;;;;;5002744;28;20546;-71
2023/12/07 01:20:12;;;;;;;37.33;20.23;;;;;;;;;;5007510;28;20053;-71
2023/12/07 01:22:53;;;;;;;38.40;20.48;;;;;;;;;;5007109;28;20104;-71
2023/12/07 01:25:35;;;;;;;39.58;18.35;;;;;;;;;;5007207;28;20123;-71
2023/12/07 01:28:16;;;;;;;42.35;21.08;;;;;;;;;;5007071;28;20057;-71
2023/12/07 01:30:58;;;;;;;;;;;;;;;;;;5007029;28;20129;-71
2023/12/07 01:33:39;;;;;;;35.88;17.60;;;;;;;;;;5007084;28;19921;-71
2023/12/07 01:36:21;;;;;;;39.50;19.85;;;;;;;;;;4996031;28;20667;-70
2023/12/07 01:39:03;;;;;;;45.90;20.02;;;;;;;;;;4999824;28;20117;-71
2023/12/07 01:41:44;;;;;;;41.53;20.38;;;;;;;;;;4995037;28;20127;-71
2023/12/07 01:44:27;;;;;;;42.08;20.70;;;;;;;;;;5006670;28;20096;-71
2023/12/07 01:47:10;;;;;;;41.25;21.73;;;;;;;;;;5006681;28;20159;-71
2023/12/07 01:49:52;;;;;;;37.17;20.15;;;;;;;;;;5006971;28;20042;-71
2023/12/07 01:52:35;;;;;;;40.42;20.23;;;;;;;;;;5001345;28;20050;-71
2023/12/07 01:55:21;;;;;;;40.72;19.50;;;;;;;;;;5007146;28;20045;-71
2023/12/07 01:58:03;;;;;;;39.00;20.63;;;;;;;;;;5012760;28;20553;-71
2023/12/07 02:00:46;;;;;;;41.97;20.55;;;;;;;;;;5012988;28;20499;-71
2023/12/07 02:03:29;;;;;;;38.95;20.48;;;;;;;;;;5006622;28;20046;-71
2023/12/07 02:06:11;;;;;;;41.25;20.30;;;;;;;;;;5010077;28;20056;-72
2023/12/07 02:08:53;;;;;;;41.53;21.17;;;;;;;;;;5010522;28;20068;-70
2023/12/07 02:11:34;;;;;;;35.40;18.33;;;;;;;;;;5004126;28;20061;-70
2023/12/07 02:14:17;;;;;;;43.95;22.95;;;;;;;;;;5003629;28;20050;-73
2023/12/07 02:17:14;;;;;;;41.03;20.33;;;;;;;;;;5009906;28;20042;-70
2023/12/07 02:20:14;;;;;;;38.25;19.35;;;;;;;;;;5011665;28;20410;-70
2023/12/07 02:22:56;;;;;;;37.67;19.48;;;;;;;;;;5007866;28;20054;-70
2023/12/07 02:25:44;;;;;;;42.53;22.50;;;;;;;;;;5008427;28;20053;-70
2023/12/07 02:28:25;;;;;;;37.67;20.38;;;;;;;;;;5005903;28;20046;-70
2023/12/07 02:31:08;;;;;;;38.35;20.05;;;;;;;;;;5010354;28;20049;-72
2023/12/07 02:33:50;;;;;;;36.97;19.80;;;;;;;;;;5008380;28;20068;-72
2023/12/07 02:36:34;;;;;;;40.28;21.38;;;;;;;;;;5008628;28;20053;-73
2023/12/07 02:39:18;;;;;;;35.60;18.73;;;;;;;;;;5009090;28;20037;-70
2023/12/07 02:42:00;;;;;;;38.92;18.98;;;;;;;;;;5009955;28;20057;-70
2023/12/07 02:44:41;;;;;;;44.03;22.60;;;;;;;;;;5011338;28;20121;-70
2023/12/07 02:47:23;;;;;;;39.40;20.45;;;;;;;;;;5013896;28;20066;-70
2023/12/07 02:50:05;;;;;;;40.30;20.80;;;;;;;;;;5010286;28;20103;-70
2023/12/07 02:52:47;;;;;;;36.25;18.83;;;;;;;;;;5009767;28;20056;-70
2023/12/07 02:55:28;;;;;;;34.42;18.85;;;;;;;;;;5009925;28;20042;-70
2023/12/07 02:58:10;;;;;;;42.22;21.40;;;;;;;;;;5003014;28;20092;-69
2023/12/07 03:00:36;;;;;;;39.03;19.88;;;;;;;;;;5008941;28;20048;-70
2023/12/07 03:03:03;;;;;;;36.95;20.23;;;;;;;;;;5009941;28;20061;-69
2023/12/07 03:05:29;;;;;;;38.50;20.52;;;;;;;;;;5009739;28;20100;-71
2023/12/07 03:07:55;;;;;;;39.42;20.25;;;;;;;;;;5009274;28;20056;-72
2023/12/07 03:10:22;;;;;;;41.92;20.77;;;;;;;;;;5014188;28;20060;-70
2023/12/07 03:12:48;;;;;;;39.83;19.92;;;;;;;;;;5009967;28;20046;-70
2023/12/07 03:15:15;;;;;;;42.28;20.58;;;;;;;;;;5009664;28;20111;-70
2023/12/07 03:17:43;;;;;;;35.95;19.13;;;;;;;;;;5009920;28;20060;-69
2023/12/07 03:20:10;;;;;;;40.08;20.73;;;;;;;;;;5009619;28;20050;-70
2023/12/07 03:22:36;;;;;;;42.50;22.40;;;;;;;;;;5009499;28;20050;-70
2023/12/07 03:25:03;;;;;;;43.70;21.88;;;;;;;;;;5009570;28;20058;-69
2023/12/07 03:27:30;;;;;;;42.67;21.15;;;;;;;;;;5009115;28;20132;-70
2023/12/07 03:29:56;;;;;;;37.47;19.75;;;;;;;;;;5009536;28;20054;-70
2023/12/07 03:32:23;;;;;;;41.95;20.98;;;;;;;;;;5006336;28;20048;-71
2023/12/07 03:34:50;;;;;;;40.42;21.92;;;;;;;;;;5009280;28;20065;-70
2023/12/07 03:37:16;;;;;;;40.83;21.80;;;;;;;;;;5009342;28;20046;-70
2023/12/07 03:39:43;;;;;;;43.10;21.63;;;;;;;;;;5007975;28;20077;-70
2023/12/07 03:42:09;;;;;;;41.53;22.20;;;;;;;;;;5009147;28;20076;-73
2023/12/07 03:44:56;;;;;;;47.80;22.23;;;;;;;;;;5009408;28;20107;-70
2023/12/07 03:47:22;;;;;;;50.35;25.38;;;;;;;;;;5008867;28;20069;-70
2023/12/07 03:49:49;;;;;;;41.90;22.40;;;;;;;;;;5009025;28;20088;-70
2023/12/07 03:52:15;;;;;;;42.58;21.27;;;;;;;;;;5008751;28;20078;-70
2023/12/07 03:54:42;;;;;;;44.33;22.92;;;;;;;;;;5009279;28;20038;-71
2023/12/07 03:57:08;;;;;;;42.10;22.15;;;;;;;;;;5008183;28;20103;-71
2023/12/07 03:59:36;;;;;;;44.80;23.02;;;;;;;;;;5008035;28;20042;-71
2023/12/07 04:02:03;;;;;;;50.10;22.80;;;;;;;;;;5008222;28;20049;-70
2023/12/07 04:04:29;;;;;;;44.92;23.00;;;;;;;;;;5009185;28;20054;-71
2023/12/07 04:06:56;;;;;;;48.78;22.95;;;;;;;;;;4998386;28;20050;-70
2023/12/07 04:09:22;;;;;;;47.17;23.35;;;;;;;;;;5007510;28;20050;-70
2023/12/07 04:11:48;;;;;;;44.53;23.70;;;;;;;;;;5008716;28;20096;-71
2023/12/07 04:14:15;;;;;;;51.72;23.50;;;;;;;;;;5008573;28;20069;-71
2023/12/07 04:16:41;;;;;;;51.35;24.52;;;;;;;;;;5004886;28;20101;-71
2023/12/07 04:19:08;;;;;;;55.13;26.15;;;;;;;;;;5008107;28;20081;-71
2023/12/07 04:21:34;;;;;;;56.83;25.58;;;;;;;;;;5015134;28;20063;-71
2023/12/07 04:24:01;;;;;;;49.35;23.52;;;;;;;;;;5010105;28;20080;-71
2023/12/07 04:26:27;;;;;;;50.78;25.05;;;;;;;;;;5009769;28;20053;-70
2023/12/07 04:28:54;;;;;;;52.20;24.55;;;;;;;;;;5007938;28;20053;-71
2023/12/07 04:31:21;;;;;;;51.63;24.40;;;;;;;;;;5009260;28;20050;-71
2023/12/07 04:33:47;;;;;;;52.85;25.70;;;;;;;;;;5008533;28;20073;-70
2023/12/07 04:36:14;;;;;;;44.90;23.23;;;;;;;;;;5002843;28;20065;-71
2023/12/07 04:38:40;;;;;;;46.30;23.83;;;;;;;;;;5008327;28;20088;-71
2023/12/07 04:41:07;;;;;;;49.17;23.50;;;;;;;;;;5007407;28;20128;-70
2023/12/07 04:43:33;;;;;;;52.38;25.10;;;;;;;;;;5008154;28;20061;-70
2023/12/07 04:46:00;;;;;;;50.58;25.05;;;;;;;;;;5007966;28;20046;-72
2023/12/07 04:48:26;;;;;;;48.13;24.30;;;;;;;;;;5007696;28;20535;-71
2023/12/07 04:50:53;;;;;;;52.55;25.75;;;;;;;;;;5004550;28;20442;-71
2023/12/07 04:53:19;;;;;;;53.85;25.65;;;;;;;;;;5007638;28;20050;-71
2023/12/07 04:55:50;;;;;;;50.92;23.73;;;;;;;;;;5008402;28;20418;-71
2023/12/07 04:58:16;;;;;;;48.55;23.92;;;;;;;;;;5007585;28;20054;-74
2023/12/07 05:00:42;;;;;;;55.22;24.75;;;;;;;;;;5008180;28;20066;-71
2023/12/07 05:03:09;;;;;;;53.65;25.17;;;;;;;;;;5007851;28;20050;-70
2023/12/07 05:05:36;;;;;;;51.40;24.70;;;;;;;;;;5001130;28;20096;-71
2023/12/07 05:08:03;;;;;;;52.08;24.73;;;;;;;;;;4999458;28;20050;-72
2023/12/07 05:10:29;;;;;;;47.35;24.13;;;;;;;;;;5011131;28;20553;-71
2023/12/07 05:12:56;;;;;;;54.42;25.02;;;;;;;;;;5008832;28;20058;-73
2023/12/07 05:15:24;;;;;;;51.63;24.50;;;;;;;;;;5008309;28;20053;-72
2023/12/07 05:17:51;;;;;;;52.20;24.02;;;;;;;;;;5008057;28;20380;-71
2023/12/07 05:20:22;;;;;;;54.90;25.75;;;;;;;;;;5007947;28;20060;-71
2023/12/07 05:22:48;;;;;;;59.13;26.48;;;;;;;;;;5006935;28;20052;-71
2023/12/07 05:25:15;;;;;;;54.97;26.05;;;;;;;;;;5007938;28;20053;-71
2023/12/07 05:27:42;;;;;;;51.10;24.25;;;;;;;;;;5007069;28;20053;-70
2023/12/07 05:30:09;;;;;;;53.92;26.13;;;;;;;;;;5007889;28;20054;-73
2023/12/07 05:32:35;;;;;;;54.05;24.85;;;;;;;;;;5007152;28;20431;-73
2023/12/07 05:35:02;;;;;;;56.97;26.30;;;;;;;;;;5010384;28;20053;-73
2023/12/07 05:37:28;;;;;;;58.00;26.17;;;;;;;;;;5005042;28;20050;-74
2023/12/07 05:39:55;;;;;;;63.22;26.73;;;;;;;;;;5007503;28;20074;-72
2023/12/07 05:42:21;;;;;;;56.88;27.20;;;;;;;;;;5006834;28;20572;-72
2023/12/07 05:44:48;;;;;;;59.33;25.80;;;;;;;;;;5007611;28;20046;-72
2023/12/07 05:47:14;;;;;;;50.03;24.02;;;;;;;;;;5007038;28;20063;-71
2023/12/07 05:49:41;;;;;;;50.35;25.38;;;;;;;;;;5007429;28;20064;-72
2023/12/07 05:52:07;;;;;;;54.60;26.20;;;;;;;;;;5007158;28;20460;-72
2023/12/07 05:54:34;;;;;;;49.47;25.23;;;;;;;;;;5007305;28;20141;-72
2023/12/07 05:57:00;;;;;;;49.80;25.05;;;;;;;;;;5008680;28;20038;-73
2023/12/07 05:59:27;;;;;;;61.42;28.80;;;;;;;;;;5012952;28;20042;-72
2023/12/07 06:01:56;;;;;;;55.70;24.88;;;;;;;;;;5007574;28;20049;-76
2023/12/07 06:04:22;;;;;;;55.92;27.58;;;;;;;;;;5007672;28;20490;-72
2023/12/07 06:06:49;;;;;;;53.08;25.98;;;;;;;;;;5005166;28;20064;-75
2023/12/07 06:09:15;;;;;;;51.63;25.38;;;;;;;;;;5006596;28;20058;-75
2023/12/07 06:11:42;;;;;;;52.55;25.38;;;;;;;;;;5005831;28;20104;-73
2023/12/07 06:14:08;;;;;;;54.75;27.67;;;;;;;;;;5006986;28;20042;-73
2023/12/07 06:16:35;;;;;;;57.95;26.50;;;;;;;;;;5007088;28;20112;-74
2023/12/07 06:19:02;;;;;;;52.80;27.25;;;;;;;;;;5006874;28;20046;-72
2023/12/07 06:21:30;;;;;;;54.92;26.17;;;;;;;;;;5011444;28;20049;-73
2023/12/07 06:23:56;;;;;;;60.83;27.65;;;;;;;;;;5009660;28;20057;-73
2023/12/07 06:26:23;;;;;;;56.78;25.30;;;;;;;;;;5007730;28;20068;-72
2023/12/07 06:28:49;;;;;;;60.78;26.90;;;;;;;;;;5006771;28;20054;-71
2023/12/07 06:31:19;;;;;;;50.40;25.42;;;;;;;;;;5006632;28;20086;-73
2023/12/07 06:33:46;;;;;;;60.25;25.30;;;;;;;;;;5006388;28;20068;-74
2023/12/07 06:36:17;;;;;;;60.88;28.35;;;;;;;;;;5005975;28;20057;-73
2023/12/07 06:38:44;;;;;;;64.45;26.17;;;;;;;;;;5006282;28;20737;-71
2023/12/07 06:41:10;;;;;;;60.47;24.98;;;;;;;;;;5005984;28;20065;-72
2023/12/07 06:43:37;;;;;;;59.55;27.38;;;;;;;;;;5008663;28;20475;-71
2023/12/07 06:46:03;;;;;;;54.80;27.02;;;;;;;;;;5009018;28;20526;-72
2023/12/07 06:48:30;;;;;;;61.35;25.98;;;;;;;;;;5010404;28;20070;-73
2023/12/07 06:50:56;;;;;;;60.28;28.35;;;;;;;;;;5010734;28;20462;-72
2023/12/07 06:53:23;;;;;;;57.00;26.33;;;;;;;;;;5009935;28;20053;-72
2023/12/07 06:55:49;;;;;;;56.90;24.52;;;;;;;;;;5010313;28;20538;-73
2023/12/07 06:58:15;;;;;;;64.10;28.92;;;;;;;;;;5010022;28;20080;-71
2023/12/07 07:00:42;;;;;;;54.25;25.98;;;;;;;;;;5010488;28;20049;-72
2023/12/07 07:03:09;;;;;;;58.28;27.10;;;;;;;;;;5009644;28;20082;-72
2023/12/07 07:05:35;;;;;;;60.20;26.38;;;;;;;;;;5003403;28;20129;-72
2023/12/07 07:08:01;;;;;;;56.72;26.90;;;;;;;;;;5002535;28;20046;-72
2023/12/07 07:10:28;;;;;;;62.35;26.90;;;;;;;;;;5010224;28;20316;-72
2023/12/07 07:12:54;;;;;;;56.88;27.40;;;;;;;;;;5008327;28;20050;-71
2023/12/07 07:15:23;;;;;;;59.45;28.30;;;;;;;;;;5010844;28;20069;-71
2023/12/07 07:17:49;;;;;;;56.55;27.80;;;;;;;;;;5006780;28;20064;-72
2023/12/07 07:20:16;;;;;;;56.53;27.55;;;;;;;;;;5010213;28;20046;-74
2023/12/07 07:22:42;;;;;;;63.85;29.27;;;;;;;;;;5008751;28;20092;-73
2023/12/07 07:25:08;;;;;;;52.97;24.02;;;;;;;;;;5010007;28;20045;-73
2023/12/07 07:27:35;;;;;;;58.58;26.17;;;;;;;;;;5006878;28;20479;-71
2023/12/07 07:30:04;;;;;;;52.38;26.15;;;;;;;;;;5010152;28;20072;-71
2023/12/07 07:32:31;;;;;;;54.75;26.27;;;;;;;;;;5005353;28;20048;-71
2023/12/07 07:34:57;;;;;;;52.97;24.55;;;;;;;;;;5009633;28;20465;-71
2023/12/07 07:37:24;;;;;;;56.50;24.75;;;;;;;;;;5009997;28;20046;-70
2023/12/07 07:39:51;;;;;;;51.78;24.23;;;;;;;;;;5009452;28;20042;-72
2023/12/07 07:42:17;;;;;;;55.65;26.48;;;;;;;;;;5008721;28;20054;-72
2023/12/07 07:44:44;;;;;;;54.45;25.70;;;;;;;;;;5009616;28;20143;-72
2023/12/07 07:47:10;;;;;;;52.60;25.70;;;;;;;;;;5009387;28;20050;-72
2023/12/07 07:49:37;;;;;;;51.58;24.20;;;;;;;;;;5011605;28;20057;-72
2023/12/07 07:52:05;;;;;;;47.53;24.55;;;;;;;;;;5009134;28;20129;-72
2023/12/07 07:54:31;;;;;;;48.50;22.63;;;;;;;;;;5009649;28;20133;-72
2023/12/07 07:56:58;;;;;;;50.53;24.10;;;;;;;;;;5008255;28;20395;-72
2023/12/07 07:59:24;;;;;;;54.97;24.85;;;;;;;;;;5008560;28;20196;-72
2023/12/07 08:01:50;;;;;;;54.25;25.30;;;;;;;;;;5008428;28;20046;-71
2023/12/07 08:04:17;;;;;;;54.67;24.08;;;;;;;;;;5009265;28;20045;-72
2023/12/07 08:06:43;;;;;;;57.15;25.73;;;;;;;;;;5008417;28;20076;-72
2023/12/07 08:09:10;;;;;;;51.42;25.35;;;;;;;;;;5008975;28;20729;-72
2023/12/07 08:11:37;;;;;;;55.33;25.95;;;;;;;;;;5007846;28;20046;-73
2023/12/07 08:14:03;;;;;;;49.13;23.70;;;;;;;;;;5008301;28;20057;-72
2023/12/07 08:16:30;;;;;;;51.55;26.95;;;;;;;;;;5008899;28;20517;-72
2023/12/07 08:18:57;;;;;;;60.88;26.83;;;;;;;;;;5012266;28;20053;-72
2023/12/07 08:21:25;;;;;;;61.97;26.05;;;;;;;;;;5009914;28;20140;-71
2023/12/07 08:23:56;;;;;;;58.80;25.35;;;;;;;;;;5008856;28;20133;-72
2023/12/07 08:26:22;;;;;;;47.42;23.48;;;;;;;;;;5008956;28;20050;-74
2023/12/07 08:28:50;;;;;;;62.00;28.45;;;;;;;;;;5008212;28;20105;-70
2023/12/07 08:31:17;;;;;;;62.00;28.23;;;;;;;;;;5007821;28;20483;-67
2023/12/07 08:33:44;;;;;;;56.92;26.60;;;;;;;;;;5007043;28;20037;-72
2023/12/07 08:36:10;;;;;;;52.97;23.40;;;;;;;;;;5008028;28;20100;-72
2023/12/07 08:38:37;;;;;;;54.75;26.00;;;;;;;;;;5007934;28;20401;-76
2023/12/07 08:41:03;;;;;;;61.55;25.90;;;;;;;;;;5009476;28;20056;-73
2023/12/07 08:43:30;;;;;;;66.65;25.42;;;;;;;;;;5001422;28;20481;-72
2023/12/07 08:45:57;;;;;;;63.50;27.80;;;;;;;;;;5008810;28;20057;-66
2023/12/07 08:48:27;;;;;;;58.97;24.48;;;;;;;;;;5007844;28;20042;-72
2023/12/07 08:50:54;;;;;;;61.70;27.50;;;;;;;;;;5008040;28;20037;-72
2023/12/07 08:53:20;;;;;;;63.65;26.98;;;;;;;;;;5007020;28;20054;-71
2023/12/07 08:55:47;;;;;;;68.10;28.73;;;;;;;;;;5007982;28;20049;-70
2023/12/07 08:58:13;;;;;;;65.82;28.17;;;;;;;;;;5007320;28;20052;-71
2023/12/07 09:00:40;;;;;;;63.53;28.00;;;;;;;;;;5007675;28;20108;-67
2023/12/07 09:03:06;;;;;;;66.90;28.00;;;;;;;;;;5007056;28;20054;-65
2023/12/07 09:05:33;;;;;;;71.13;30.67;;;;;;;;;;5009766;28;20037;-65
2023/12/07 09:08:00;;;;;;;76.68;31.40;;;;;;;;;;5005488;28;20080;-65
2023/12/07 09:10:26;;;;;;;66.65;28.02;;;;;;;;;;5003313;28;20224;-72
2023/12/07 09:12:53;;;;;;;68.68;26.70;;;;;;;;;;4996506;28;20427;-72
2023/12/07 09:15:19;;;;;;;74.50;30.52;;;;;;;;;;4998711;28;20510;-74
2023/12/07 09:17:46;;;;;;;71.65;29.77;;;;;;;;;;5005879;28;20042;-68
2023/12/07 09:20:12;;;;;;;71.90;30.52;;;;;;;;;;5005605;28;20084;-72
2023/12/07 09:22:43;;;;;;;71.32;28.80;;;;;;;;;;4998295;28;20411;-69
2023/12/07 09:25:10;;;;;;;68.55;29.58;;;;;;;;;;5004940;28;20046;-70
2023/12/07 09:27:38;;;;;;;73.45;29.38;;;;;;;;;;5006597;28;20054;-73
2023/12/07 09:30:04;;;;;;;63.47;28.33;;;;;;;;;;5006693;28;20618;-68
2023/12/07 09:32:31;;;;;;;68.40;28.48;;;;;;;;;;5011119;28;20518;-75
2023/12/07 09:35:03;;;;;;;78.15;31.80;;;;;;;;;;5002527;28;20129;-69
2023/12/07 09:37:30;;;;;;;72.38;30.05;;;;;;;;;;5004165;28;20748;-70
2023/12/07 09:39:57;;;;;;;72.63;32.65;;;;;;;;;;5005819;28;20050;-67
2023/12/07 09:42:23;;;;;;;69.15;27.73;;;;;;;;;;5004995;28;20092;-73
2023/12/07 09:44:57;;;;;;;74.32;31.20;;;;;;;;;;5004089;28;20060;-73
2023/12/07 09:47:26;;;;;;;81.20;34.83;;;;;;;;;;5005327;28;20129;-71
2023/12/07 09:50:02;;;;;;;72.50;30.08;;;;;;;;;;5005353;28;20077;-70
2023/12/07 09:52:29;;;;;;;76.78;31.98;;;;;;;;;;5004304;28;20038;-68
2023/12/07 09:54:56;;;;;;;85.30;33.65;;;;;;;;;;5006073;28;20062;-69
2023/12/07 09:57:23;;;;;;;75.82;33.20;;;;;;;;;;5004426;28;20046;-71
2023/12/07 09:59:50;;;;;;;84.03;33.60;;;;;;;;;;5004230;28;20286;-69
2023/12/07 10:02:17;;;;;;;72.88;29.92;;;;;;;;;;5005396;28;20054;-68
2023/12/07 10:04:44;;;;;;;75.45;30.73;;;;;;;;;;5007211;28;20046;-67
2023/12/07 10:07:10;;;;;;;77.55;34.60;;;;;;;;;;5004337;28;20049;-66
2023/12/07 10:09:43;;;;;;;75.97;31.67;;;;;;;;;;5007099;28;20046;-66
2023/12/07 10:12:10;;;;;;;74.05;32.92;;;;;;;;;;5004689;28;20046;-71
2023/12/07 10:14:37;;;;;;;75.45;33.03;;;;;;;;;;5004118;28;20309;-74
2023/12/07 10:17:04;;;;;;;76.32;30.40;;;;;;;;;;5003266;28;20116;-71
2023/12/07 10:19:30;;;;;;;78.93;32.00;;;;;;;;;;5005083;28;20056;-70
2023/12/07 10:21:59;;;;;;;87.45;32.83;;;;;;;;;;5007454;28;20045;-68
2023/12/07 10:24:27;;;;;;;82.22;31.45;;;;;;;;;;5007239;28;20050;-66
2023/12/07 10:26:56;;;;;;;74.30;31.33;;;;;;;;;;5005690;28;20088;-72
2023/12/07 10:29:29;;;;;;;79.93;35.97;;;;;;;;;;5006756;28;20046;-70
2023/12/07 10:32:01;;;;;;;95.35;35.92;;;;;;;;;;5009192;28;20088;-75
2023/12/07 10:34:27;;;;;;;81.90;32.58;;;;;;;;;;5007760;28;20657;-72
2023/12/07 10:36:55;;;;;;;87.20;34.20;;;;;;;;;;5009088;28;20049;-72
2023/12/07 10:39:24;;;;;;;83.43;34.75;;;;;;;;;;5006588;28;20479;-73
2023/12/07 10:42:01;;;;;;;88.88;35.20;;;;;;;;;;5007548;28;20100;-69
2023/12/07 10:44:28;;;;;;;74.00;36.35;;;;;;;;;;5007299;28;20053;-72
2023/12/07 10:46:56;;;;;;;84.50;36.38;;;;;;;;;;5008133;28;20049;-71
2023/12/07 10:49:26;;;;;;;87.82;36.88;;;;;;;;;;5007422;28;20057;-74
2023/12/07 10:52:03;;;;;;;82.32;33.53;;;;;;;;;;5005318;28;20525;-73
2023/12/07 10:54:47;;;;;;;91.90;34.78;;;;;;;;;;5008828;28;20049;-75
2023/12/07 10:57:14;;;;;;;85.88;33.88;;;;;;;;;;5006430;28;20049;-68
2023/12/07 10:59:42;;;;;;;89.95;37.60;;;;;;;;;;5008145;28;20041;-71
2023/12/07 11:02:10;;;;;;;92.40;34.92;;;;;;;;;;5007810;28;20042;-74
2023/12/07 11:04:37;;;;;;;84.35;35.30;;;;;;;;;;5008105;28;20041;-73
2023/12/07 11:07:07;;;;;;;91.20;38.22;;;;;;;;;;5007188;28;20048;-73
2023/12/07 11:09:38;;;;;;;94.90;38.03;;;;;;;;;;5009013;28;20667;-75
2023/12/07 11:12:12;;;;;;;97.43;39.15;;;;;;;;;;5006328;28;20733;-77
2023/12/07 11:14:42;;;;;;;85.88;36.50;;;;;;;;;;5012013;28;20052;-73
2023/12/07 11:17:08;;;;;;;95.95;38.20;;;;;;;;;;5008827;28;20519;-77
2023/12/07 11:19:36;;;;;;;88.82;36.38;;;;;;;;;;5008584;28;20069;-74
2023/12/07 11:22:04;;;;;;;89.63;36.60;;;;;;;;;;5007911;28;20049;-72
2023/12/07 11:24:33;;;;;;;93.43;39.25;;;;;;;;;;5001857;28;20177;-74
2023/12/07 11:27:01;;;;;;;91.18;38.00;;;;;;;;;;5006626;28;20038;-70
2023/12/07 11:29:31;;;;;;;95.07;37.88;;;;;;;;;;5007622;28;20446;-74
2023/12/07 11:32:00;;;;;;;93.07;36.50;;;;;;;;;;5008213;28;20057;-77
2023/12/07 11:34:36;;;;;;;94.78;37.28;;;;;;;;;;5015107;28;20046;-74
2023/12/07 11:37:03;;;;;;;89.13;35.65;;;;;;;;;;5011759;28;20053;-68
2023/12/07 11:39:34;;;;;;;84.55;35.83;;;;;;;;;;5007613;28;20534;-71
2023/12/07 11:42:08;;;;;;;85.32;36.80;;;;;;;;;;5006255;28;20045;-73
2023/12/07 11:44:34;;;;;;;82.00;33.28;;;;;;;;;;5008273;28;20081;-75
2023/12/07 11:47:05;;;;;;;87.28;33.67;;;;;;;;;;5006882;28;20050;-73
2023/12/07 11:49:31;;;;;;;86.28;33.33;;;;;;;;;;5006827;28;20074;-70
2023/12/07 11:52:18;;;;;;;83.43;35.67;;;;;;;;;;5006113;28;20073;-73
2023/12/07 11:54:46;;;;;;;88.05;35.65;;;;;;;;;;5006877;28;20095;-74
2023/12/07 11:57:16;;;;;;;89.57;34.40;;;;;;;;;;5007419;28;20528;-72
2023/12/07 11:59:47;;;;;;;92.68;36.97;;;;;;;;;;5007914;28;20050;-71
2023/12/07 12:02:15;;;;;;;93.28;35.92;;;;;;;;;;5011933;28;20429;-70
2023/12/07 12:04:42;;;;;;;88.72;35.58;;;;;;;;;;5007575;28;20138;-70
2023/12/07 12:07:09;;;;;;;95.90;37.03;;;;;;;;;;5008040;28;20135;-73
2023/12/07 12:09:35;;;;;;;106.75;38.30;;;;;;;;;;5001568;28;20500;-70
2023/12/07 12:12:03;;;;;;;100.85;37.22;;;;;;;;;;5004676;28;20093;-66
2023/12/07 12:14:29;;;;;;;91.97;35.15;;;;;;;;;;5003855;28;20042;-68
2023/12/07 12:16:56;;;;;;;99.32;36.95;;;;;;;;;;5006076;28;20204;-68
2023/12/07 12:19:24;;;;;;;111.15;39.08;;;;;;;;;;5006039;28;20625;-66
2023/12/07 12:22:00;;;;;;;89.75;35.92;;;;;;;;;;5002611;28;20046;-66
2023/12/07 12:24:30;;;;;;;114.03;37.80;;;;;;;;;;5005760;28;20485;-65
2023/12/07 12:26:57;;;;;;;110.07;37.83;;;;;;;;;;5008821;28;20297;-64
2023/12/07 12:29:23;;;;;;;109.13;38.72;;;;;;;;;;5010727;28;20137;-66
2023/12/07 12:31:59;;;;;;;118.20;35.95;;;;;;;;;;5006700;28;20376;-67
2023/12/07 12:34:25;;;;;;;104.35;34.60;;;;;;;;;;5008957;28;20057;-66
2023/12/07 12:36:56;;;;;;;124.43;38.97;;;;;;;;;;5005157;28;20048;-65
2023/12/07 12:39:29;;;;;;;132.43;39.60;;;;;;;;;;5008149;28;20169;-68
2023/12/07 12:42:00;;;;;;;112.75;35.38;;;;;;;;;;5007453;28;20502;-66
2023/12/07 12:44:27;;;;;;;119.70;35.38;;;;;;;;;;5007944;28;20137;-66
2023/12/07 12:47:04;;;;;;;101.22;33.85;;;;;;;;;;5007163;28;20057;-67
2023/12/07 12:49:37;;;;;;;117.30;37.25;;;;;;;;;;5007915;28;20049;-67
2023/12/07 12:52:04;;;;;;;117.18;37.33;;;;;;;;;;5009644;28;20046;-71
2023/12/07 12:54:34;;;;;;;117.25;33.85;;;;;;;;;;5008535;28;20487;-70
2023/12/07 12:57:00;;;;;;;105.40;33.22;;;;;;;;;;5008814;28;20549;-71
2023/12/07 12:59:27;;;;;;;147.85;36.70;;;;;;;;;;5007793;28;20046;-67
2023/12/07 13:01:53;;;;;;;111.57;33.22;;;;;;;;;;5007875;28;20065;-66
2023/12/07 13:04:20;;;;;;;122.45;34.70;;;;;;;;;;5002813;28;20053;-69
2023/12/07 13:06:48;;;;;;;110.38;32.63;;;;;;;;;;5005260;28;20553;-72
2023/12/07 13:09:16;;;;;;;105.63;32.53;;;;;;;;;;5006767;28;20490;-71
2023/12/07 13:11:46;;;;;;;127.88;34.17;;;;;;;;;;5006324;28;20038;-69
2023/12/07 13:14:13;;;;;;;112.22;34.17;;;;;;;;;;5006461;28;20045;-69
2023/12/07 13:16:40;;;;;;;132.82;35.10;;;;;;;;;;5005054;28;20073;-70
2023/12/07 13:19:07;;;;;;;140.30;37.60;;;;;;;;;;4999962;28;20049;-76
2023/12/07 13:21:36;;;;;;;123.32;33.72;;;;;;;;;;5003972;28;20057;-67
2023/12/07 13:24:04;;;;;;;124.53;35.55;;;;;;;;;;5007568;28;20050;-71
2023/12/07 13:26:31;;;;;;;96.53;31.67;;;;;;;;;;5007798;28;20046;-66
2023/12/07 13:28:57;;;;;;;132.95;35.05;;;;;;;;;;5007392;28;20061;-64
2023/12/07 13:31:24;;;;;;;145.32;38.83;;;;;;;;;;5008412;28;20566;-62
2023/12/07 13:33:51;;;;;;;139.02;35.67;;;;;;;;;;5008166;28;20127;-66
2023/12/07 13:36:25;;;;;;;133.88;31.52;;;;;;;;;;5007363;28;20052;-66
2023/12/07 13:38:52;;;;;;;114.47;33.53;;;;;;;;;;5000615;28;20066;-66
2023/12/07 13:41:19;;;;;;;104.53;33.83;;;;;;;;;;5007707;28;20046;-66
2023/12/07 13:43:48;;;;;;;129.52;33.22;;;;;;;;;;5006567;28;20046;-65
2023/12/07 13:46:16;;;;;;;102.80;32.38;;;;;;;;;;5007646;28;20060;-68
2023/12/07 13:48:49;;;;;;;105.18;31.35;;;;;;;;;;5005904;28;20145;-67
2023/12/07 13:51:16;;;;;;;86.00;27.83;;;;;;;;;;5007727;28;20120;-67
2023/12/07 13:53:42;;;;;;;88.82;28.60;;;;;;;;;;5008312;28;20061;-66
2023/12/07 13:56:11;;;;;;;94.25;28.25;;;;;;;;;;5009844;28;20038;-68
2023/12/07 13:58:39;;;;;;;94.82;29.42;;;;;;;;;;5010163;28;20049;-66
2023/12/07 14:01:06;;;;;;;106.57;32.20;;;;;;;;;;5011786;28;20929;-71
2023/12/07 14:03:33;;;;;;;83.53;29.30;;;;;;;;;;5015242;28;20053;-70
2023/12/07 14:05:59;;;;;;;89.93;28.30;;;;;;;;;;5016324;28;20387;-70
2023/12/07 14:08:31;;;;;;;103.20;33.78;;;;;;;;;;5011552;28;20137;-68
2023/12/07 14:10:57;;;;;;;96.97;30.75;;;;;;;;;;5001848;28;20085;-68
2023/12/07 14:13:25;;;;;;;102.18;31.05;;;;;;;;;;5011276;28;20691;-67
2023/12/07 14:15:52;;;;;;;96.25;29.77;;;;;;;;;;5010444;28;20046;-67
2023/12/07 14:18:22;;;;;;;88.20;30.65;;;;;;;;;;5012010;28;20387;-67
2023/12/07 14:20:49;;;;;;;83.38;28.77;;;;;;;;;;5011445;28;20042;-66
2023/12/07 14:23:36;;;;;;;98.50;31.50;;;;;;;;;;5011307;28;20053;-67
2023/12/07 14:26:04;;;;;;;95.63;27.88;;;;;;;;;;5007523;28;20052;-67
2023/12/07 14:28:33;;;;;;;81.97;26.35;;;;;;;;;;5011398;28;20659;-68
2023/12/07 14:31:01;;;;;;;90.05;28.60;;;;;;;;;;5011301;28;20419;-67
2023/12/07 14:33:27;;;;;;;84.10;27.48;;;;;;;;;;5012242;28;20057;-68
2023/12/07 14:35:54;;;;;;;97.85;32.08;;;;;;;;;;5010398;28;20129;-69